Time;durP1;ratioP1;P1;durP2;ratioP2;P2;SDS_P1;SDS_P2;PMS_P1;PMS_P2;Temp;Humidity;BMP_temperature;BMP_pressure;BME280_temperature;BME280_humidity;BME280_pressure;Samples;Min_cycle;Max_cycle;Signal;HPM_P1;HPM_P2
2023/05/10 00:01:51;;;;;;;10.55;7.00;;;;;;;;;;5029167;28;20037;-75
2023/05/10 00:04:16;;;;;;;10.23;7.13;;;;;;;;;;5049732;28;20053;-75
2023/05/10 00:06:41;;;;;;;11.40;7.50;;;;;;;;;;5045465;28;20041;-75
2023/05/10 00:09:07;;;;;;;11.82;7.60;;;;;;;;;;5038787;28;20036;-75
2023/05/10 00:11:32;;;;;;;11.57;7.20;;;;;;;;;;5055290;28;20473;-75
2023/05/10 00:13:57;;;;;;;11.77;8.07;;;;;;;;;;5051853;28;20104;-75
2023/05/10 00:16:23;;;;;;;12.85;8.13;;;;;;;;;;5057290;28;20033;-75
2023/05/10 00:18:48;;;;;;;13.23;8.23;;;;;;;;;;5051705;28;20029;-75
2023/05/10 00:21:13;;;;;;;14.13;8.68;;;;;;;;;;5048450;28;20094;-75
2023/05/10 00:23:39;;;;;;;13.40;8.60;;;;;;;;;;5052418;28;20497;-75
2023/05/10 00:26:04;;;;;;;14.93;7.85;;;;;;;;;;5054406;28;20032;-75
2023/05/10 00:28:30;;;;;;;13.93;8.57;;;;;;;;;;5055428;28;20032;-75
2023/05/10 00:30:55;;;;;;;14.82;9.23;;;;;;;;;;5053268;28;20082;-75
2023/05/10 00:33:21;;;;;;;14.25;9.13;;;;;;;;;;5051838;28;20099;-75
2023/05/10 00:35:46;;;;;;;15.05;9.27;;;;;;;;;;5053946;28;20025;-75
2023/05/10 00:38:11;;;;;;;14.80;9.63;;;;;;;;;;5050579;28;20114;-75
2023/05/10 00:40:37;;;;;;;16.48;9.40;;;;;;;;;;5051582;28;20541;-75
2023/05/10 00:43:02;;;;;;;14.88;9.50;;;;;;;;;;5051483;28;20027;-75
2023/05/10 00:45:29;;;;;;;16.25;10.13;;;;;;;;;;5054217;28;20032;-75
2023/05/10 00:47:55;;;;;;;16.38;9.82;;;;;;;;;;5051194;28;20029;-75
2023/05/10 00:50:22;;;;;;;17.48;10.60;;;;;;;;;;5057668;28;20048;-75
2023/05/10 00:52:48;;;;;;;17.77;10.35;;;;;;;;;;5055509;28;20041;-75
2023/05/10 00:55:13;;;;;;;17.70;10.27;;;;;;;;;;5053867;28;20035;-75
2023/05/10 00:57:39;;;;;;;17.52;10.65;;;;;;;;;;5057612;28;20033;-75
2023/05/10 01:00:05;;;;;;;18.73;10.82;;;;;;;;;;5055795;28;20025;-75
2023/05/10 01:02:30;;;;;;;15.20;9.88;;;;;;;;;;5054189;28;20207;-75
2023/05/10 01:04:56;;;;;;;18.05;11.68;;;;;;;;;;5046633;28;20037;-75
2023/05/10 01:07:21;;;;;;;19.65;11.38;;;;;;;;;;5055962;28;20021;-75
2023/05/10 01:09:46;;;;;;;18.30;11.45;;;;;;;;;;5042568;28;20028;-75
2023/05/10 01:12:12;;;;;;;16.27;9.77;;;;;;;;;;5054446;28;20115;-75
2023/05/10 01:14:38;;;;;;;19.23;10.38;;;;;;;;;;5041776;28;20599;-75
2023/05/10 01:17:05;;;;;;;16.45;10.48;;;;;;;;;;5046948;28;20057;-75
2023/05/10 01:19:31;;;;;;;25.13;11.75;;;;;;;;;;5048036;28;20025;-75
2023/05/10 01:22:41;;;;;;;17.75;11.32;;;;;;;;;;5049511;28;20527;-75
2023/05/10 01:25:36;;;;;;;20.13;10.98;;;;;;;;;;5044875;28;20084;-75
2023/05/10 01:28:23;;;;;;;17.70;10.57;;;;;;;;;;5049021;28;20135;-76
2023/05/10 01:31:01;;;;;;;20.38;11.15;;;;;;;;;;5047112;28;20080;-75
2023/05/10 01:33:26;;;;;;;21.48;11.48;;;;;;;;;;5051067;28;20029;-75
2023/05/10 01:36:15;;;;;;;22.58;12.68;;;;;;;;;;5049417;28;20095;-75
2023/05/10 01:38:51;;;;;;;23.10;12.70;;;;;;;;;;5045634;28;20030;-75
2023/05/10 01:41:47;;;;;;;21.23;12.98;;;;;;;;;;5050317;28;20396;-75
2023/05/10 01:44:38;;;;;;;23.85;13.13;;;;;;;;;;5049023;28;20439;-75
2023/05/10 01:47:11;;;;;;;23.35;12.93;;;;;;;;;;5048589;28;20485;-75
2023/05/10 01:49:49;;;;;;;20.55;12.90;;;;;;;;;;5049016;28;20021;-75
2023/05/10 01:52:19;;;;;;;21.38;12.40;;;;;;;;;;5051029;28;20029;-75
2023/05/10 01:55:00;;;;;;;20.83;12.40;;;;;;;;;;5051040;28;20212;-75
2023/05/10 01:57:32;;;;;;;21.67;13.13;;;;;;;;;;5054325;28;20044;-75
2023/05/10 01:59:59;;;;;;;22.35;13.15;;;;;;;;;;5046751;28;20071;-75
2023/05/10 02:02:26;;;;;;;22.27;13.18;;;;;;;;;;5042998;28;20029;-75
2023/05/10 02:04:54;;;;;;;26.50;14.15;;;;;;;;;;5053177;28;20029;-75
2023/05/10 02:07:21;;;;;;;22.52;13.65;;;;;;;;;;5050625;28;20108;-74
2023/05/10 02:09:47;;;;;;;22.38;13.20;;;;;;;;;;5048962;28;20025;-76
2023/05/10 02:12:14;;;;;;;21.33;12.93;;;;;;;;;;5051932;28;20048;-75
2023/05/10 02:14:42;;;;;;;25.55;13.52;;;;;;;;;;5057896;28;20393;-75
2023/05/10 02:17:08;;;;;;;25.92;14.15;;;;;;;;;;5054436;28;20477;-75
2023/05/10 02:19:35;;;;;;;26.58;13.70;;;;;;;;;;5056643;28;20025;-75
2023/05/10 02:22:02;;;;;;;23.55;13.07;;;;;;;;;;5055838;28;20045;-75
2023/05/10 02:24:28;;;;;;;24.70;13.52;;;;;;;;;;5055813;28;20029;-75
2023/05/10 02:26:55;;;;;;;23.27;13.25;;;;;;;;;;5052420;28;20439;-75
2023/05/10 02:29:23;;;;;;;25.63;14.13;;;;;;;;;;5042574;28;20062;-75
2023/05/10 02:31:51;;;;;;;25.95;13.98;;;;;;;;;;5051094;28;20033;-75
2023/05/10 02:34:16;;;;;;;24.70;13.20;;;;;;;;;;5052036;28;20060;-75
2023/05/10 02:36:43;;;;;;;24.70;13.18;;;;;;;;;;5050819;28;20036;-75
2023/05/10 02:39:12;;;;;;;25.05;13.52;;;;;;;;;;5047576;28;20022;-75
2023/05/10 02:41:40;;;;;;;26.67;11.52;;;;;;;;;;5053456;28;20115;-75
2023/05/10 02:44:07;;;;;;;23.13;12.75;;;;;;;;;;5054434;28;20025;-75
2023/05/10 02:46:33;;;;;;;20.58;12.27;;;;;;;;;;5044152;28;20037;-75
2023/05/10 02:48:58;;;;;;;24.50;12.20;;;;;;;;;;5047940;28;20036;-75
2023/05/10 02:51:27;;;;;;;22.95;12.35;;;;;;;;;;5048798;28;20023;-75
2023/05/10 02:53:55;;;;;;;22.63;11.88;;;;;;;;;;5045420;28;20095;-75
2023/05/10 02:56:28;;;;;;;22.30;11.70;;;;;;;;;;5047265;28;20021;-74
2023/05/10 02:58:54;;;;;;;24.83;11.75;;;;;;;;;;5043108;28;20078;-74
2023/05/10 03:01:20;;;;;;;21.92;11.32;;;;;;;;;;5047491;28;20144;-75
2023/05/10 03:03:45;;;;;;;24.83;13.10;;;;;;;;;;5044142;28;20104;-75
2023/05/10 03:06:10;;;;;;;20.58;11.50;;;;;;;;;;5047526;28;20029;-75
2023/05/10 03:08:36;;;;;;;22.55;11.68;;;;;;;;;;5045596;28;20079;-75
2023/05/10 03:11:16;;;;;;;26.67;12.07;;;;;;;;;;5045357;28;20078;-75
2023/05/10 03:14:06;;;;;;;20.02;11.02;;;;;;;;;;5045768;28;20055;-75
2023/05/10 03:16:42;;;;;;;20.67;11.18;;;;;;;;;;5043716;28;20079;-75
2023/05/10 03:19:27;;;;;;;20.67;11.32;;;;;;;;;;5048302;28;20081;-75
2023/05/10 03:21:58;;;;;;;25.42;12.73;;;;;;;;;;5045720;28;20025;-75
2023/05/10 03:24:27;;;;;;;23.63;12.70;;;;;;;;;;5047865;28;20033;-75
2023/05/10 03:26:56;;;;;;;23.05;12.48;;;;;;;;;;5051355;28;20103;-75
2023/05/10 03:29:22;;;;;;;24.63;12.55;;;;;;;;;;5048902;28;20466;-75
2023/05/10 03:31:48;;;;;;;24.08;12.38;;;;;;;;;;5051671;28;20028;-75
2023/05/10 03:34:13;;;;;;;25.83;13.57;;;;;;;;;;5054040;28;20029;-75
2023/05/10 03:36:38;;;;;;;25.70;12.65;;;;;;;;;;5049490;28;20466;-75
2023/05/10 03:39:04;;;;;;;22.60;12.98;;;;;;;;;;5047494;28;20466;-75
2023/05/10 03:41:29;;;;;;;27.85;14.38;;;;;;;;;;5054403;28;20089;-75
2023/05/10 03:43:55;;;;;;;25.38;14.25;;;;;;;;;;5047973;28;20033;-75
2023/05/10 03:46:20;;;;;;;27.23;15.02;;;;;;;;;;5051377;28;20033;-75
2023/05/10 03:48:45;;;;;;;26.90;14.95;;;;;;;;;;5049632;28;20114;-75
2023/05/10 03:51:11;;;;;;;29.30;15.52;;;;;;;;;;5054679;28;20025;-75
2023/05/10 03:53:36;;;;;;;30.38;15.05;;;;;;;;;;5048901;28;20045;-75
2023/05/10 03:56:01;;;;;;;22.90;14.15;;;;;;;;;;5054294;28;20028;-75
2023/05/10 03:58:27;;;;;;;25.20;14.80;;;;;;;;;;5055131;28;20537;-75
2023/05/10 04:00:52;;;;;;;23.70;13.93;;;;;;;;;;5056720;28;20043;-75
2023/05/10 04:03:18;;;;;;;25.83;14.90;;;;;;;;;;5044269;28;20029;-75
2023/05/10 04:05:43;;;;;;;26.85;14.63;;;;;;;;;;5057133;28;20035;-75
2023/05/10 04:08:08;;;;;;;25.02;14.23;;;;;;;;;;5052961;28;20059;-75
2023/05/10 04:10:34;;;;;;;25.40;13.70;;;;;;;;;;5058681;28;20029;-75
2023/05/10 04:12:59;;;;;;;22.15;13.32;;;;;;;;;;5055851;28;20099;-74
2023/05/10 04:15:25;;;;;;;22.38;13.07;;;;;;;;;;5056186;28;20021;-75
2023/05/10 04:17:50;;;;;;;23.85;13.93;;;;;;;;;;5053006;28;20385;-75
2023/05/10 04:20:16;;;;;;;24.05;14.20;;;;;;;;;;5048460;28;20024;-75
2023/05/10 04:22:41;;;;;;;23.13;14.00;;;;;;;;;;5031797;28;20435;-75
2023/05/10 04:25:07;;;;;;;22.85;14.07;;;;;;;;;;5054923;28;20106;-75
2023/05/10 04:27:33;;;;;;;24.10;14.68;;;;;;;;;;5050666;28;20025;-75
2023/05/10 04:29:58;;;;;;;24.50;15.27;;;;;;;;;;5049178;28;20445;-75
2023/05/10 04:32:23;;;;;;;23.08;13.45;;;;;;;;;;5045553;28;20484;-75
2023/05/10 04:34:50;;;;;;;25.27;15.07;;;;;;;;;;5050108;28;20455;-75
2023/05/10 04:37:15;;;;;;;27.23;14.73;;;;;;;;;;5044259;28;20025;-75
2023/05/10 04:39:41;;;;;;;29.23;16.00;;;;;;;;;;5046493;28;20462;-75
2023/05/10 04:42:06;;;;;;;25.27;14.23;;;;;;;;;;5052737;28;20021;-75
2023/05/10 04:44:32;;;;;;;29.17;15.13;;;;;;;;;;5055130;28;20033;-75
2023/05/10 04:46:58;;;;;;;25.10;14.75;;;;;;;;;;5050428;28;20016;-75
2023/05/10 04:49:23;;;;;;;28.85;15.70;;;;;;;;;;5046574;28;20032;-75
2023/05/10 04:51:49;;;;;;;29.67;15.48;;;;;;;;;;5051247;28;20025;-75
2023/05/10 04:54:14;;;;;;;28.40;15.23;;;;;;;;;;5052999;28;20024;-75
2023/05/10 04:56:40;;;;;;;27.35;14.43;;;;;;;;;;5045592;28;20027;-75
2023/05/10 04:59:06;;;;;;;30.42;15.32;;;;;;;;;;5046168;28;20392;-75
2023/05/10 05:01:31;;;;;;;30.27;15.38;;;;;;;;;;5044299;28;20032;-75
2023/05/10 05:03:56;;;;;;;27.90;15.50;;;;;;;;;;5052738;28;20440;-75
2023/05/10 05:06:22;;;;;;;29.42;15.15;;;;;;;;;;5052253;28;20025;-74
2023/05/10 05:08:49;;;;;;;28.02;15.27;;;;;;;;;;5051171;28;20025;-75
2023/05/10 05:11:14;;;;;;;27.10;15.10;;;;;;;;;;5046392;28;20021;-75
2023/05/10 05:13:39;;;;;;;28.70;16.02;;;;;;;;;;5046902;28;20427;-75
2023/05/10 05:16:05;;;;;;;28.27;16.45;;;;;;;;;;5053006;28;20447;-75
2023/05/10 05:18:30;;;;;;;29.00;16.02;;;;;;;;;;5049372;28;20021;-75
2023/05/10 05:20:56;;;;;;;29.17;14.73;;;;;;;;;;5044695;28;20017;-75
2023/05/10 05:23:24;;;;;;;27.65;15.60;;;;;;;;;;5049303;28;20082;-75
2023/05/10 05:25:51;;;;;;;27.90;15.30;;;;;;;;;;5049046;28;20036;-75
2023/05/10 05:28:16;;;;;;;27.95;14.85;;;;;;;;;;5049629;28;20123;-75
2023/05/10 05:30:42;;;;;;;28.67;15.25;;;;;;;;;;5042829;28;20060;-75
2023/05/10 05:33:07;;;;;;;26.60;14.70;;;;;;;;;;5044293;28;20021;-75
2023/05/10 05:35:33;;;;;;;30.00;16.10;;;;;;;;;;5045766;28;20496;-75
2023/05/10 05:37:58;;;;;;;30.58;15.98;;;;;;;;;;5045712;28;20020;-75
2023/05/10 05:40:23;;;;;;;27.67;15.88;;;;;;;;;;5043088;28;20022;-75
2023/05/10 05:42:49;;;;;;;32.05;16.10;;;;;;;;;;5052126;28;20033;-75
2023/05/10 05:45:15;;;;;;;29.92;15.68;;;;;;;;;;5051948;28;20020;-75
2023/05/10 05:47:41;;;;;;;28.13;15.43;;;;;;;;;;5046756;28;20104;-75
2023/05/10 05:50:06;;;;;;;28.45;14.63;;;;;;;;;;5052947;28;20051;-74
2023/05/10 05:52:32;;;;;;;31.42;15.95;;;;;;;;;;5047118;28;20040;-75
2023/05/10 05:54:57;;;;;;;30.83;16.33;;;;;;;;;;5048965;28;20040;-75
2023/05/10 05:57:23;;;;;;;30.42;16.27;;;;;;;;;;5051899;28;20033;-74
2023/05/10 05:59:48;;;;;;;29.63;15.48;;;;;;;;;;5047236;28;20155;-74
2023/05/10 06:02:13;;;;;;;25.58;14.93;;;;;;;;;;5044196;28;20040;-75
2023/05/10 06:04:39;;;;;;;29.30;15.23;;;;;;;;;;5039402;28;20461;-75
2023/05/10 06:07:04;;;;;;;28.27;14.90;;;;;;;;;;5044985;28;20028;-75
2023/05/10 06:09:29;;;;;;;30.08;16.20;;;;;;;;;;5041061;28;20036;-75
2023/05/10 06:11:55;;;;;;;31.20;15.52;;;;;;;;;;5040810;28;20028;-75
2023/05/10 06:14:20;;;;;;;31.20;14.88;;;;;;;;;;5044638;28;20028;-75
2023/05/10 06:16:46;;;;;;;25.15;14.07;;;;;;;;;;5045964;28;20068;-75
2023/05/10 06:19:11;;;;;;;24.83;13.50;;;;;;;;;;5048297;28;20027;-75
2023/05/10 06:21:37;;;;;;;27.08;14.23;;;;;;;;;;5045796;28;20034;-75
2023/05/10 06:24:02;;;;;;;21.08;12.82;;;;;;;;;;5044574;28;20044;-74
2023/05/10 06:26:28;;;;;;;24.27;14.32;;;;;;;;;;5046842;28;20027;-75
2023/05/10 06:28:53;;;;;;;24.77;13.40;;;;;;;;;;5042572;28;20041;-75
2023/05/10 06:31:18;;;;;;;24.45;13.98;;;;;;;;;;5048637;28;20439;-75
2023/05/10 06:33:44;;;;;;;27.00;14.05;;;;;;;;;;5044624;28;20040;-75
2023/05/10 06:36:09;;;;;;;24.70;13.77;;;;;;;;;;5045619;28;20028;-74
2023/05/10 06:38:35;;;;;;;30.10;14.20;;;;;;;;;;5052411;28;20064;-75
2023/05/10 06:41:00;;;;;;;23.60;13.55;;;;;;;;;;5050765;28;20021;-74
2023/05/10 06:43:26;;;;;;;26.80;14.85;;;;;;;;;;5050833;28;20040;-75
2023/05/10 06:45:51;;;;;;;24.80;13.68;;;;;;;;;;5044906;28;20515;-75
2023/05/10 06:48:17;;;;;;;23.30;13.95;;;;;;;;;;5046773;28;20030;-75
2023/05/10 06:50:42;;;;;;;24.27;14.35;;;;;;;;;;5051742;28;20025;-75
2023/05/10 06:53:08;;;;;;;25.42;14.70;;;;;;;;;;5048612;28;20029;-75
2023/05/10 06:55:33;;;;;;;28.33;14.13;;;;;;;;;;5044367;28;20681;-75
2023/05/10 06:57:58;;;;;;;31.45;15.25;;;;;;;;;;5045030;28;20505;-75
2023/05/10 07:00:23;;;;;;;25.17;14.30;;;;;;;;;;5048095;28;20447;-75
2023/05/10 07:02:49;;;;;;;27.15;14.45;;;;;;;;;;5049982;28;20381;-75
2023/05/10 07:05:15;;;;;;;31.30;14.93;;;;;;;;;;5043334;28;20071;-75
2023/05/10 07:07:40;;;;;;;28.63;15.65;;;;;;;;;;5046932;28;20086;-75
2023/05/10 07:10:07;;;;;;;29.45;14.77;;;;;;;;;;5047687;28;20025;-75
2023/05/10 07:12:33;;;;;;;29.83;15.85;;;;;;;;;;5049674;28;20052;-75
2023/05/10 07:14:58;;;;;;;33.85;15.32;;;;;;;;;;5048185;28;20052;-75
2023/05/10 07:17:23;;;;;;;27.85;15.18;;;;;;;;;;5044652;28;20428;-75
2023/05/10 07:19:49;;;;;;;27.45;16.08;;;;;;;;;;5048618;28;20021;-75
2023/05/10 07:22:15;;;;;;;32.53;16.10;;;;;;;;;;5041128;28;20700;-75
2023/05/10 07:24:40;;;;;;;31.00;16.45;;;;;;;;;;5050075;28;20086;-76
2023/05/10 07:27:06;;;;;;;32.67;17.10;;;;;;;;;;5047367;28;20495;-75
2023/05/10 07:29:31;;;;;;;27.98;15.93;;;;;;;;;;5040702;28;20026;-75
2023/05/10 07:31:56;;;;;;;30.25;16.35;;;;;;;;;;5044660;28;20033;-75
2023/05/10 07:34:22;;;;;;;30.92;17.20;;;;;;;;;;5043597;28;20025;-75
2023/05/10 07:36:47;;;;;;;32.17;15.68;;;;;;;;;;5049955;28;20477;-75
2023/05/10 07:39:13;;;;;;;27.05;14.85;;;;;;;;;;5058399;28;20017;-75
2023/05/10 07:41:38;;;;;;;28.40;15.35;;;;;;;;;;5054907;28;20029;-76
2023/05/10 07:44:04;;;;;;;28.48;14.60;;;;;;;;;;5048603;28;20463;-76
2023/05/10 07:46:30;;;;;;;26.25;15.40;;;;;;;;;;5044983;28;20025;-75
2023/05/10 07:48:55;;;;;;;25.23;14.23;;;;;;;;;;5042411;28;20025;-75
2023/05/10 07:51:21;;;;;;;25.15;15.52;;;;;;;;;;5052179;28;20040;-75
2023/05/10 07:53:46;;;;;;;26.65;15.20;;;;;;;;;;5047328;28;20025;-75
2023/05/10 07:56:29;;;;;;;29.52;14.80;;;;;;;;;;5049705;28;20025;-75
2023/05/10 07:59:02;;;;;;;27.23;14.00;;;;;;;;;;5056592;28;20507;-75
2023/05/10 08:01:32;;;;;;;28.63;15.02;;;;;;;;;;5047896;28;20068;-75
2023/05/10 08:03:57;;;;;;;25.80;13.60;;;;;;;;;;5057549;28;20108;-75
2023/05/10 08:06:23;;;;;;;29.52;14.77;;;;;;;;;;5048043;28;20548;-75
2023/05/10 08:08:50;;;;;;;34.13;16.10;;;;;;;;;;5043178;28;20478;-75
2023/05/10 08:11:18;;;;;;;28.45;15.35;;;;;;;;;;5051934;28;20032;-75
2023/05/10 08:13:45;;;;;;;25.88;14.25;;;;;;;;;;5057986;28;20059;-75
2023/05/10 08:16:10;;;;;;;24.20;13.27;;;;;;;;;;5053907;28;20082;-75
2023/05/10 08:18:36;;;;;;;27.67;13.00;;;;;;;;;;5054309;28;20021;-75
2023/05/10 08:21:02;;;;;;;24.58;13.15;;;;;;;;;;5045800;28;20487;-75
2023/05/10 08:23:27;;;;;;;25.65;13.88;;;;;;;;;;5053816;28;20104;-75
2023/05/10 08:25:53;;;;;;;25.92;14.18;;;;;;;;;;5051377;28;20036;-75
2023/05/10 08:28:18;;;;;;;25.38;14.20;;;;;;;;;;5055980;28;20035;-75
2023/05/10 08:30:43;;;;;;;27.63;13.82;;;;;;;;;;5058228;28;20037;-75
2023/05/10 08:33:08;;;;;;;29.02;14.35;;;;;;;;;;5057441;28;20103;-75
2023/05/10 08:35:34;;;;;;;28.13;15.32;;;;;;;;;;5054653;28;20028;-75
2023/05/10 08:38:00;;;;;;;25.88;14.73;;;;;;;;;;5058632;28;20024;-75
2023/05/10 08:40:26;;;;;;;22.10;13.13;;;;;;;;;;5058822;28;20017;-75
2023/05/10 08:43:00;;;;;;;22.98;13.15;;;;;;;;;;5055996;28;20040;-75
2023/05/10 08:45:31;;;;;;;21.67;12.13;;;;;;;;;;5056622;28;20108;-75
2023/05/10 08:47:58;;;;;;;18.95;11.48;;;;;;;;;;5047116;28;20078;-75
2023/05/10 08:50:25;;;;;;;19.67;10.55;;;;;;;;;;5042874;28;20460;-75
2023/05/10 08:52:55;;;;;;;18.67;10.20;;;;;;;;;;5056708;28;20547;-75
2023/05/10 08:55:20;;;;;;;17.75;8.90;;;;;;;;;;5045800;28;20113;-75
2023/05/10 08:57:46;;;;;;;15.27;7.95;;;;;;;;;;5052559;28;20060;-75
2023/05/10 09:00:13;;;;;;;16.92;8.40;;;;;;;;;;5052052;28;20029;-75
2023/05/10 09:02:39;;;;;;;15.20;8.20;;;;;;;;;;5056824;28;20028;-75
2023/05/10 09:05:05;;;;;;;17.48;9.38;;;;;;;;;;5054732;28;20029;-75
2023/05/10 09:07:31;;;;;;;14.68;9.00;;;;;;;;;;5056074;28;20032;-75
2023/05/10 09:09:57;;;;;;;15.60;8.38;;;;;;;;;;5056243;28;20044;-75
2023/05/10 09:12:23;;;;;;;13.60;7.90;;;;;;;;;;5056298;28;20469;-75
2023/05/10 09:14:51;;;;;;;10.82;6.30;;;;;;;;;;5055243;28;20102;-75
2023/05/10 09:17:17;;;;;;;13.07;6.45;;;;;;;;;;5056889;28;20389;-75
2023/05/10 09:19:44;;;;;;;11.77;6.45;;;;;;;;;;5058012;28;20013;-75
2023/05/10 09:22:10;;;;;;;14.50;6.15;;;;;;;;;;5055468;28;20017;-75
2023/05/10 09:24:36;;;;;;;11.73;6.55;;;;;;;;;;5044585;28;20026;-75
2023/05/10 09:27:02;;;;;;;11.07;6.18;;;;;;;;;;5049474;28;20021;-75
2023/05/10 09:29:39;;;;;;;11.15;5.97;;;;;;;;;;5053978;28;20040;-75
2023/05/10 09:32:04;;;;;;;9.57;5.65;;;;;;;;;;5048906;28;20040;-75
2023/05/10 09:34:31;;;;;;;11.77;5.03;;;;;;;;;;5047500;28;20469;-75
2023/05/10 09:37:02;;;;;;;8.52;4.93;;;;;;;;;;5055362;28;20033;-75
2023/05/10 09:39:32;;;;;;;7.90;5.15;;;;;;;;;;5053963;28;20127;-76
2023/05/10 09:41:59;;;;;;;7.15;4.82;;;;;;;;;;5046464;28;20025;-75
2023/05/10 09:44:25;;;;;;;8.57;5.25;;;;;;;;;;5070055;28;20043;-75
2023/05/10 09:46:52;;;;;;;7.43;4.90;;;;;;;;;;5056112;28;20456;-75
2023/05/10 09:49:18;;;;;;;8.10;4.97;;;;;;;;;;5050301;28;20108;-76
2023/05/10 09:51:44;;;;;;;9.77;5.00;;;;;;;;;;5050849;28;20515;-75
2023/05/10 09:54:11;;;;;;;7.50;4.80;;;;;;;;;;5058225;28;20097;-75
2023/05/10 09:56:38;;;;;;;9.40;4.63;;;;;;;;;;5054807;28;20025;-76
2023/05/10 09:59:05;;;;;;;7.68;4.78;;;;;;;;;;5055092;28;20186;-75
2023/05/10 10:01:30;;;;;;;8.05;4.95;;;;;;;;;;5051730;28;20021;-75
2023/05/10 10:03:57;;;;;;;6.95;4.95;;;;;;;;;;5053181;28;20039;-75
2023/05/10 10:06:23;;;;;;;7.38;4.43;;;;;;;;;;5055876;28;20025;-76
2023/05/10 10:08:50;;;;;;;5.68;4.18;;;;;;;;;;5049556;28;20108;-76
2023/05/10 10:11:15;;;;;;;6.97;4.30;;;;;;;;;;5054277;28;20052;-76
2023/05/10 10:13:41;;;;;;;6.50;3.90;;;;;;;;;;5056978;28;20044;-76
2023/05/10 10:16:08;;;;;;;6.95;4.03;;;;;;;;;;5045059;28;20112;-76
2023/05/10 10:18:38;;;;;;;7.13;4.32;;;;;;;;;;5049854;28;20025;-76
2023/05/10 10:21:05;;;;;;;7.05;4.68;;;;;;;;;;5049056;28;20024;-75
2023/05/10 10:23:31;;;;;;;7.72;4.40;;;;;;;;;;5054227;28;20024;-76
2023/05/10 10:25:57;;;;;;;6.95;4.05;;;;;;;;;;5054501;28;20021;-76
2023/05/10 10:28:47;;;;;;;6.85;4.13;;;;;;;;;;5051668;28;20027;-76
2023/05/10 10:31:34;;;;;;;7.10;4.28;;;;;;;;;;5044669;28;20028;-76
2023/05/10 10:34:11;;;;;;;7.18;4.50;;;;;;;;;;5046638;28;20032;-76
2023/05/10 10:36:42;;;;;;;9.20;4.72;;;;;;;;;;5054116;28;20071;-76
2023/05/10 10:39:11;;;;;;;7.30;4.60;;;;;;;;;;5054029;28;20029;-76
2023/05/10 10:41:40;;;;;;;8.02;4.90;;;;;;;;;;5053214;28;20443;-76
2023/05/10 10:44:26;;;;;;;8.10;4.75;;;;;;;;;;5050444;28;20056;-76
2023/05/10 10:47:11;;;;;;;8.57;4.97;;;;;;;;;;5053832;28;20023;-76
2023/05/10 10:49:59;;;;;;;8.85;5.53;;;;;;;;;;5042198;28;20020;-76
2023/05/10 10:52:30;;;;;;;9.25;5.40;;;;;;;;;;5042575;28;20087;-76
2023/05/10 10:55:07;;;;;;;9.07;5.50;;;;;;;;;;5052251;28;20350;-76
2023/05/10 10:57:47;;;;;;;8.48;5.35;;;;;;;;;;5049677;28;20024;-76
2023/05/10 11:00:32;;;;;;;7.07;5.05;;;;;;;;;;5053144;28;20032;-76
2023/05/10 11:03:14;;;;;;;8.90;5.07;;;;;;;;;;5048984;28;20029;-76
2023/05/10 11:05:49;;;;;;;10.30;5.35;;;;;;;;;;5046174;28;20021;-76
2023/05/10 11:08:32;;;;;;;7.50;5.47;;;;;;;;;;5049328;28;20512;-76
2023/05/10 11:11:00;;;;;;;8.13;5.03;;;;;;;;;;5042686;28;20049;-76
2023/05/10 11:13:31;;;;;;;9.88;6.55;;;;;;;;;;5042654;28;20037;-76
2023/05/10 11:15:57;;;;;;;9.02;6.05;;;;;;;;;;5049942;28;20032;-75
2023/05/10 11:18:28;;;;;;;10.80;6.97;;;;;;;;;;5051587;28;20024;-76
2023/05/10 11:21:09;;;;;;;10.40;5.80;;;;;;;;;;5052362;28;20028;-76
2023/05/10 11:23:43;;;;;;;10.23;5.65;;;;;;;;;;5041568;28;20024;-75
2023/05/10 11:26:09;;;;;;;8.95;5.03;;;;;;;;;;5049610;28;20029;-76
2023/05/10 11:28:41;;;;;;;9.38;6.35;;;;;;;;;;5048499;28;20060;-76
2023/05/10 11:31:07;;;;;;;10.43;5.80;;;;;;;;;;5047049;28;20025;-76
2023/05/10 11:33:43;;;;;;;10.00;6.78;;;;;;;;;;5054758;28;20031;-76
2023/05/10 11:36:11;;;;;;;11.52;6.05;;;;;;;;;;5055682;28;20078;-76
2023/05/10 11:38:37;;;;;;;9.50;6.35;;;;;;;;;;5046810;28;20127;-76
2023/05/10 11:41:02;;;;;;;8.32;5.72;;;;;;;;;;5053372;28;20493;-76
2023/05/10 11:43:30;;;;;;;12.40;7.05;;;;;;;;;;5050814;28;20495;-75
2023/05/10 11:45:55;;;;;;;11.70;7.57;;;;;;;;;;5043264;28;21911;-76
2023/05/10 11:48:23;;;;;;;10.80;7.38;;;;;;;;;;5047157;28;20028;-76
2023/05/10 11:50:49;;;;;;;11.43;7.88;;;;;;;;;;5036366;28;20571;-78
2023/05/10 11:53:14;;;;;;;11.63;7.75;;;;;;;;;;5048761;28;20059;-76
2023/05/10 11:55:40;;;;;;;10.60;7.43;;;;;;;;;;5045243;28;20025;-77
2023/05/10 11:58:05;;;;;;;9.13;7.25;;;;;;;;;;5050576;28;20396;-77
2023/05/10 12:00:31;;;;;;;9.95;7.57;;;;;;;;;;5052665;28;20025;-76
2023/05/10 12:02:57;;;;;;;11.52;7.25;;;;;;;;;;5055358;28;20033;-77
2023/05/10 12:05:22;;;;;;;7.15;5.38;;;;;;;;;;5052440;28;20031;-77
2023/05/10 12:07:48;;;;;;;8.32;5.43;;;;;;;;;;5055233;28;20075;-77
2023/05/10 12:10:14;;;;;;;7.82;5.93;;;;;;;;;;5050833;28;20025;-77
2023/05/10 12:12:44;;;;;;;8.50;6.75;;;;;;;;;;5040738;28;20040;-77
2023/05/10 12:15:21;;;;;;;7.93;6.20;;;;;;;;;;5040652;28;20033;-76
2023/05/10 12:17:47;;;;;;;6.70;5.60;;;;;;;;;;5047006;28;20089;-78
2023/05/10 12:20:23;;;;;;;8.10;6.50;;;;;;;;;;5047905;28;20025;-77
2023/05/10 12:22:51;;;;;;;7.00;5.82;;;;;;;;;;5053151;28;20480;-78
2023/05/10 12:25:20;;;;;;;8.18;6.82;;;;;;;;;;5047221;28;20366;-77
2023/05/10 12:27:54;;;;;;;10.35;6.30;;;;;;;;;;5047050;28;20036;-76
2023/05/10 12:30:31;;;;;;;7.80;5.63;;;;;;;;;;5041918;28;20083;-78
2023/05/10 12:33:10;;;;;;;9.27;6.00;;;;;;;;;;5027684;28;20132;-77
2023/05/10 12:35:53;;;;;;;7.60;6.22;;;;;;;;;;5037792;28;20065;-78
2023/05/10 12:38:38;;;;;;;8.77;5.80;;;;;;;;;;5042752;28;20500;-78
2023/05/10 12:41:06;;;;;;;8.13;6.07;;;;;;;;;;5049358;28;20058;-77
2023/05/10 12:43:32;;;;;;;7.90;6.10;;;;;;;;;;5039793;28;20154;-78
2023/05/10 12:45:58;;;;;;;7.57;6.13;;;;;;;;;;5038830;28;20548;-78
2023/05/10 12:48:24;;;;;;;8.32;6.00;;;;;;;;;;5049942;28;20103;-78
2023/05/10 12:50:50;;;;;;;8.60;6.18;;;;;;;;;;5043147;28;20497;-77
2023/05/10 12:53:15;;;;;;;9.02;6.25;;;;;;;;;;5042656;28;20017;-77
2023/05/10 12:55:42;;;;;;;7.72;6.20;;;;;;;;;;5046507;28;20032;-77
2023/05/10 12:58:07;;;;;;;8.13;5.47;;;;;;;;;;5054034;28;20491;-78
2023/05/10 13:00:33;;;;;;;10.95;6.97;;;;;;;;;;5054594;28;20029;-77
2023/05/10 13:02:58;;;;;;;9.45;7.53;;;;;;;;;;5056986;28;20113;-78
2023/05/10 13:05:23;;;;;;;8.60;6.38;;;;;;;;;;5048168;28;20040;-78
2023/05/10 13:07:49;;;;;;;9.63;7.25;;;;;;;;;;5058250;28;20029;-77
2023/05/10 13:10:14;;;;;;;10.30;7.57;;;;;;;;;;5045458;28;20449;-78
2023/05/10 13:12:40;;;;;;;10.60;7.63;;;;;;;;;;5060014;28;20028;-77
2023/05/10 13:15:06;;;;;;;13.10;8.32;;;;;;;;;;5052733;28;20500;-78
2023/05/10 13:17:31;;;;;;;9.57;7.53;;;;;;;;;;5043278;28;20515;-77
2023/05/10 13:19:57;;;;;;;10.52;8.13;;;;;;;;;;5059633;28;20116;-78
2023/05/10 13:22:22;;;;;;;10.00;7.63;;;;;;;;;;5052174;28;20452;-77
2023/05/10 13:24:47;;;;;;;10.07;6.97;;;;;;;;;;5046543;28;20021;-78
2023/05/10 13:27:13;;;;;;;7.70;6.50;;;;;;;;;;5051615;28;20029;-78
2023/05/10 13:29:38;;;;;;;6.93;5.50;;;;;;;;;;5046164;28;20087;-76
2023/05/10 13:32:04;;;;;;;7.35;5.82;;;;;;;;;;5046722;28;20028;-77
2023/05/10 13:34:29;;;;;;;7.78;5.68;;;;;;;;;;5047820;28;20021;-78
2023/05/10 13:36:56;;;;;;;7.05;5.60;;;;;;;;;;5043912;28;20053;-77
2023/05/10 13:39:21;;;;;;;7.28;6.03;;;;;;;;;;5048859;28;20461;-78
2023/05/10 13:41:47;;;;;;;6.57;5.13;;;;;;;;;;5053313;28;20117;-78
2023/05/10 13:44:14;;;;;;;8.75;5.82;;;;;;;;;;5047928;28;20044;-79
2023/05/10 13:46:40;;;;;;;10.73;5.32;;;;;;;;;;5040235;28;20031;-77
2023/05/10 13:49:05;;;;;;;7.82;6.00;;;;;;;;;;5051614;28;20484;-79
2023/05/10 13:51:34;;;;;;;8.45;5.85;;;;;;;;;;5051747;28;20090;-78
2023/05/10 13:53:59;;;;;;;8.60;6.03;;;;;;;;;;5051286;28;20036;-79
2023/05/10 13:56:24;;;;;;;8.13;5.47;;;;;;;;;;5041651;28;20028;-79
2023/05/10 13:58:50;;;;;;;7.75;6.05;;;;;;;;;;5053832;28;20025;-78
2023/05/10 14:01:15;;;;;;;7.88;5.43;;;;;;;;;;5049052;28;20023;-77
2023/05/10 14:03:40;;;;;;;6.28;5.15;;;;;;;;;;5051216;28;20029;-77
2023/05/10 14:06:07;;;;;;;7.28;5.25;;;;;;;;;;5046152;28;20040;-78
2023/05/10 14:08:32;;;;;;;6.05;4.90;;;;;;;;;;5045006;28;20021;-78
2023/05/10 14:10:58;;;;;;;7.10;5.70;;;;;;;;;;5047975;28;20036;-78
2023/05/10 14:13:24;;;;;;;9.52;6.30;;;;;;;;;;5046093;28;20397;-78
2023/05/10 14:15:49;;;;;;;6.60;4.95;;;;;;;;;;5046522;28;20026;-78
2023/05/10 14:18:15;;;;;;;7.93;5.15;;;;;;;;;;5046523;28;20107;-78
2023/05/10 14:20:40;;;;;;;14.93;6.13;;;;;;;;;;5046048;28;20033;-77
2023/05/10 14:23:05;;;;;;;8.98;5.85;;;;;;;;;;5052975;28;20427;-78
2023/05/10 14:25:30;;;;;;;7.43;6.10;;;;;;;;;;5042072;28;20033;-77
2023/05/10 14:27:56;;;;;;;9.25;7.60;;;;;;;;;;5047957;28;20033;-79
2023/05/10 14:30:21;;;;;;;10.98;8.75;;;;;;;;;;5051332;28;20051;-77